メインページ
METAR-TAF:

METAR-TAF

空港 :

バーレーン, バーレーン

バーレーン国際空港

緯度: 26-16N, 経度: 050-39E, 海抜: 2m

現時点の気象観測

当レポートは1時間0分前の11:00(UTC)に作成
の風 21kt
気温 24°C
湿度 74%
気圧 1009 hPa
視程10km以上
高度2500ftの雲は散在している

METAR: OBBI 241100Z 10021KT 9999 SCT025 24/19 Q1009 NOSIG

時間: 15:00 (12:00 UTC)

予報

当レポートは1時間0分前の11:00(UTC)に作成
予報は24日の 12時(UTC)から 25日の 18時(UTC)まで有効
東/南東の風 16kt
視程: 9000m
高度2500ftの雲は散在している
24日の 16時(UTC)から 25日の 12時(UTC)まで一時的に
視程: 5000m
高度1000ftの千切れ雲あり
確率 30% :
24日の 18時(UTC)から 25日の 10時(UTC)まで一時的に
変向風 20kt、最大35ktの突風を伴う
視程: 2000m
高度4000ftの雲は散在している, 積乱雲.
激しい雷雨, 雨

TAF: OBBI 241100Z 2412/2518 12016KT 9000 SCT025 TEMPO 2416/2512 5000 RA BKN010 PROB30 TEMPO 2418/2510 VRB20G35KT 2000 TSRA SCT040CB

4,000以上の空港の気象観測と天気予報(METAR報とTAF報)

利用可能な観測所は地図上に黄色い丸と赤い丸で示す。

丸の上にカーソルを重ねると観測所名を参照できる。

次にクリックすると気象観測と天気予報を参照できる。

マップの切り替え:黒色「×」印の緑ボタンをクリックして拡大、「-」印の緑ボタンをクリックして縮小、緑色の三角印をクリックして隣りの地図に切り替え


METAR-TAF: